sensor_id;sensor_type;location;lat;lon;timestamp;temperature;humidity
12819;DHT22;6474;53.474;9.894;2022-09-13T00:01:56;17.80;72.70
12819;DHT22;6474;53.474;9.894;2022-09-13T00:04:24;17.80;72.80
12819;DHT22;6474;53.474;9.894;2022-09-13T00:06:52;17.80;72.80
12819;DHT22;6474;53.474;9.894;2022-09-13T00:09:20;17.80;72.90
12819;DHT22;6474;53.474;9.894;2022-09-13T00:11:47;17.70;72.80
12819;DHT22;6474;53.474;9.894;2022-09-13T00:14:16;17.80;72.90
12819;DHT22;6474;53.474;9.894;2022-09-13T00:16:44;17.80;72.90
12819;DHT22;6474;53.474;9.894;2022-09-13T00:19:12;17.80;72.90
12819;DHT22;6474;53.474;9.894;2022-09-13T00:21:40;17.80;72.90
12819;DHT22;6474;53.474;9.894;2022-09-13T00:24:07;17.80;72.90
12819;DHT22;6474;53.474;9.894;2022-09-13T00:26:35;17.80;72.80
12819;DHT22;6474;53.474;9.894;2022-09-13T00:29:03;17.80;72.80
12819;DHT22;6474;53.474;9.894;2022-09-13T00:31:32;17.90;72.90
12819;DHT22;6474;53.474;9.894;2022-09-13T00:34:00;17.90;72.80
12819;DHT22;6474;53.474;9.894;2022-09-13T00:36:28;17.90;72.70
12819;DHT22;6474;53.474;9.894;2022-09-13T00:38:56;17.90;72.60
12819;DHT22;6474;53.474;9.894;2022-09-13T00:41:23;17.90;72.60
12819;DHT22;6474;53.474;9.894;2022-09-13T00:43:52;17.90;72.60
12819;DHT22;6474;53.474;9.894;2022-09-13T00:46:32;17.90;72.60
12819;DHT22;6474;53.474;9.894;2022-09-13T00:49:10;17.80;72.70
12819;DHT22;6474;53.474;9.894;2022-09-13T00:51:42;17.70;72.70
12819;DHT22;6474;53.474;9.894;2022-09-13T00:54:12;17.70;72.90
12819;DHT22;6474;53.474;9.894;2022-09-13T00:56:44;17.60;73.00
12819;DHT22;6474;53.474;9.894;2022-09-13T00:59:14;17.50;72.90
12819;DHT22;6474;53.474;9.894;2022-09-13T01:01:48;17.40;72.90
12819;DHT22;6474;53.474;9.894;2022-09-13T01:04:20;17.30;73.10
12819;DHT22;6474;53.474;9.894;2022-09-13T01:06:51;17.30;73.30
12819;DHT22;6474;53.474;9.894;2022-09-13T01:09:21;17.20;73.30
12819;DHT22;6474;53.474;9.894;2022-09-13T01:11:52;17.20;73.40
12819;DHT22;6474;53.474;9.894;2022-09-13T01:14:26;17.20;73.50
12819;DHT22;6474;53.474;9.894;2022-09-13T01:16:55;17.10;73.50
12819;DHT22;6474;53.474;9.894;2022-09-13T01:19:23;17.10;73.60
12819;DHT22;6474;53.474;9.894;2022-09-13T01:28:16;16.90;73.90
12819;DHT22;6474;53.474;9.894;2022-09-13T01:30:49;16.80;73.90
12819;DHT22;6474;53.474;9.894;2022-09-13T01:33:37;16.90;74.00
12819;DHT22;6474;53.474;9.894;2022-09-13T01:36:41;16.80;74.00
12819;DHT22;6474;53.474;9.894;2022-09-13T01:39:12;16.80;74.00
12819;DHT22;6474;53.474;9.894;2022-09-13T01:41:58;16.80;73.90
12819;DHT22;6474;53.474;9.894;2022-09-13T01:44:45;16.80;73.90
12819;DHT22;6474;53.474;9.894;2022-09-13T01:47:24;16.80;73.90
12819;DHT22;6474;53.474;9.894;2022-09-13T01:50:02;16.80;74.00
12819;DHT22;6474;53.474;9.894;2022-09-13T01:52:41;16.80;74.00
12819;DHT22;6474;53.474;9.894;2022-09-13T01:55:15;16.70;73.80
12819;DHT22;6474;53.474;9.894;2022-09-13T01:57:49;16.70;73.80
12819;DHT22;6474;53.474;9.894;2022-09-13T02:00:19;16.70;73.80
12819;DHT22;6474;53.474;9.894;2022-09-13T02:02:50;16.60;73.80
12819;DHT22;6474;53.474;9.894;2022-09-13T02:05:23;16.60;73.70
12819;DHT22;6474;53.474;9.894;2022-09-13T02:07:56;16.60;73.70
12819;DHT22;6474;53.474;9.894;2022-09-13T02:10:27;16.60;73.70
12819;DHT22;6474;53.474;9.894;2022-09-13T02:12:57;16.60;73.80
12819;DHT22;6474;53.474;9.894;2022-09-13T02:15:28;16.60;73.80
12819;DHT22;6474;53.474;9.894;2022-09-13T02:18:04;16.60;73.80
12819;DHT22;6474;53.474;9.894;2022-09-13T02:20:36;16.60;73.90
12819;DHT22;6474;53.474;9.894;2022-09-13T02:23:09;16.60;73.90
12819;DHT22;6474;53.474;9.894;2022-09-13T02:25:39;16.60;73.90
12819;DHT22;6474;53.474;9.894;2022-09-13T02:28:11;16.60;73.80
12819;DHT22;6474;53.474;9.894;2022-09-13T02:30:43;16.60;73.80
12819;DHT22;6474;53.474;9.894;2022-09-13T02:33:16;16.70;73.90
12819;DHT22;6474;53.474;9.894;2022-09-13T02:35:50;16.70;73.80
12819;DHT22;6474;53.474;9.894;2022-09-13T02:38:22;16.70;73.90
12819;DHT22;6474;53.474;9.894;2022-09-13T02:40:56;16.70;73.80
12819;DHT22;6474;53.474;9.894;2022-09-13T02:43:28;16.60;73.70
12819;DHT22;6474;53.474;9.894;2022-09-13T02:46:09;16.70;73.80
12819;DHT22;6474;53.474;9.894;2022-09-13T02:48:49;16.60;73.70
12819;DHT22;6474;53.474;9.894;2022-09-13T02:51:27;16.60;73.80
12819;DHT22;6474;53.474;9.894;2022-09-13T02:54:05;16.60;73.90
12819;DHT22;6474;53.474;9.894;2022-09-13T02:56:43;16.60;73.80
12819;DHT22;6474;53.474;9.894;2022-09-13T02:59:16;16.60;73.90
12819;DHT22;6474;53.474;9.894;2022-09-13T03:01:48;16.60;73.80
12819;DHT22;6474;53.474;9.894;2022-09-13T03:04:18;16.60;73.90
12819;DHT22;6474;53.474;9.894;2022-09-13T03:06:48;16.60;73.90
12819;DHT22;6474;53.474;9.894;2022-09-13T03:09:17;16.60;73.90
12819;DHT22;6474;53.474;9.894;2022-09-13T03:11:56;16.60;73.90
12819;DHT22;6474;53.474;9.894;2022-09-13T03:14:36;16.60;73.90
12819;DHT22;6474;53.474;9.894;2022-09-13T03:17:14;16.70;73.90
12819;DHT22;6474;53.474;9.894;2022-09-13T03:20:04;16.70;73.90
12819;DHT22;6474;53.474;9.894;2022-09-13T03:22:52;16.70;73.90
12819;DHT22;6474;53.474;9.894;2022-09-13T03:25:30;16.70;73.90
12819;DHT22;6474;53.474;9.894;2022-09-13T03:28:08;16.70;73.80
12819;DHT22;6474;53.474;9.894;2022-09-13T03:30:43;16.70;73.90
12819;DHT22;6474;53.474;9.894;2022-09-13T03:33:15;16.70;73.90
12819;DHT22;6474;53.474;9.894;2022-09-13T03:35:50;16.70;73.90
12819;DHT22;6474;53.474;9.894;2022-09-13T03:38:23;16.70;73.90
12819;DHT22;6474;53.474;9.894;2022-09-13T03:40:55;16.70;73.90
12819;DHT22;6474;53.474;9.894;2022-09-13T03:43:27;16.70;73.90
12819;DHT22;6474;53.474;9.894;2022-09-13T03:46:03;16.70;73.90
12819;DHT22;6474;53.474;9.894;2022-09-13T03:48:34;16.70;74.00
12819;DHT22;6474;53.474;9.894;2022-09-13T03:51:06;16.70;74.10
12819;DHT22;6474;53.474;9.894;2022-09-13T03:53:36;16.60;74.00
12819;DHT22;6474;53.474;9.894;2022-09-13T03:56:11;16.70;74.20
12819;DHT22;6474;53.474;9.894;2022-09-13T03:58:39;16.60;74.10
12819;DHT22;6474;53.474;9.894;2022-09-13T04:01:07;16.60;74.20
12819;DHT22;6474;53.474;9.894;2022-09-13T04:03:36;16.60;74.20
12819;DHT22;6474;53.474;9.894;2022-09-13T04:06:06;16.60;74.20
12819;DHT22;6474;53.474;9.894;2022-09-13T04:08:34;16.70;74.30
12819;DHT22;6474;53.474;9.894;2022-09-13T04:11:02;16.70;74.30
12819;DHT22;6474;53.474;9.894;2022-09-13T04:13:30;16.70;74.30
12819;DHT22;6474;53.474;9.894;2022-09-13T04:15:59;16.70;74.30
12819;DHT22;6474;53.474;9.894;2022-09-13T04:18:28;16.70;74.30
12819;DHT22;6474;53.474;9.894;2022-09-13T04:20:58;16.70;74.30
12819;DHT22;6474;53.474;9.894;2022-09-13T04:23:28;16.70;74.30
12819;DHT22;6474;53.474;9.894;2022-09-13T04:26:00;16.70;74.30
12819;DHT22;6474;53.474;9.894;2022-09-13T04:28:28;16.70;74.30
12819;DHT22;6474;53.474;9.894;2022-09-13T04:30:56;16.80;74.40
12819;DHT22;6474;53.474;9.894;2022-09-13T04:33:24;16.70;74.20
12819;DHT22;6474;53.474;9.894;2022-09-13T04:35:57;16.70;74.10
12819;DHT22;6474;53.474;9.894;2022-09-13T04:38:27;16.70;74.10
12819;DHT22;6474;53.474;9.894;2022-09-13T04:40:57;16.70;74.10
12819;DHT22;6474;53.474;9.894;2022-09-13T04:43:25;16.60;74.10
12819;DHT22;6474;53.474;9.894;2022-09-13T04:45:53;16.60;74.20
12819;DHT22;6474;53.474;9.894;2022-09-13T04:48:20;16.50;74.30
12819;DHT22;6474;53.474;9.894;2022-09-13T04:50:48;16.50;74.30
12819;DHT22;6474;53.474;9.894;2022-09-13T04:53:16;16.50;74.40
12819;DHT22;6474;53.474;9.894;2022-09-13T04:55:45;16.50;74.50
12819;DHT22;6474;53.474;9.894;2022-09-13T04:58:13;16.50;74.50
12819;DHT22;6474;53.474;9.894;2022-09-13T05:00:41;16.50;75.30
12819;DHT22;6474;53.474;9.894;2022-09-13T05:03:08;16.50;74.60
12819;DHT22;6474;53.474;9.894;2022-09-13T05:05:36;16.50;74.60
12819;DHT22;6474;53.474;9.894;2022-09-13T05:08:04;16.50;74.60
12819;DHT22;6474;53.474;9.894;2022-09-13T05:10:32;16.50;74.60
12819;DHT22;6474;53.474;9.894;2022-09-13T05:13:01;16.50;74.60
12819;DHT22;6474;53.474;9.894;2022-09-13T05:15:29;16.50;74.60
12819;DHT22;6474;53.474;9.894;2022-09-13T05:17:57;16.50;74.70
12819;DHT22;6474;53.474;9.894;2022-09-13T05:20:24;16.50;75.50
12819;DHT22;6474;53.474;9.894;2022-09-13T05:22:54;16.50;74.70
12819;DHT22;6474;53.474;9.894;2022-09-13T05:25:22;16.50;74.70
12819;DHT22;6474;53.474;9.894;2022-09-13T05:27:51;16.50;74.70
12819;DHT22;6474;53.474;9.894;2022-09-13T05:30:20;16.50;74.70
12819;DHT22;6474;53.474;9.894;2022-09-13T05:32:48;16.60;74.80
12819;DHT22;6474;53.474;9.894;2022-09-13T05:35:16;16.60;74.70
12819;DHT22;6474;53.474;9.894;2022-09-13T05:37:44;16.60;74.60
12819;DHT22;6474;53.474;9.894;2022-09-13T05:40:11;16.60;74.70
12819;DHT22;6474;53.474;9.894;2022-09-13T05:42:39;16.60;74.60
12819;DHT22;6474;53.474;9.894;2022-09-13T05:45:08;16.60;74.60
12819;DHT22;6474;53.474;9.894;2022-09-13T05:47:37;16.70;75.40
12819;DHT22;6474;53.474;9.894;2022-09-13T05:50:05;16.60;74.60
12819;DHT22;6474;53.474;9.894;2022-09-13T05:52:41;16.60;74.60
12819;DHT22;6474;53.474;9.894;2022-09-13T05:55:09;16.70;74.80
12819;DHT22;6474;53.474;9.894;2022-09-13T05:57:37;16.70;74.80
12819;DHT22;6474;53.474;9.894;2022-09-13T06:00:05;16.70;74.70
12819;DHT22;6474;53.474;9.894;2022-09-13T06:02:33;16.80;75.00
12819;DHT22;6474;53.474;9.894;2022-09-13T06:05:03;16.80;74.90
12819;DHT22;6474;53.474;9.894;2022-09-13T06:07:32;16.90;74.90
12819;DHT22;6474;53.474;9.894;2022-09-13T06:10:00;16.90;74.80
12819;DHT22;6474;53.474;9.894;2022-09-13T06:12:28;17.00;74.80
12819;DHT22;6474;53.474;9.894;2022-09-13T06:14:56;17.00;75.40
12819;DHT22;6474;53.474;9.894;2022-09-13T06:17:24;17.00;74.70
12819;DHT22;6474;53.474;9.894;2022-09-13T06:19:52;17.00;74.70
12819;DHT22;6474;53.474;9.894;2022-09-13T06:22:21;17.10;74.80
12819;DHT22;6474;53.474;9.894;2022-09-13T06:24:49;17.00;74.70
12819;DHT22;6474;53.474;9.894;2022-09-13T06:27:17;17.10;74.80
12819;DHT22;6474;53.474;9.894;2022-09-13T06:29:45;17.10;74.80
12819;DHT22;6474;53.474;9.894;2022-09-13T06:32:13;17.10;74.80
12819;DHT22;6474;53.474;9.894;2022-09-13T06:34:41;17.20;74.90
12819;DHT22;6474;53.474;9.894;2022-09-13T06:37:08;17.20;74.90
12819;DHT22;6474;53.474;9.894;2022-09-13T06:39:37;17.30;75.00
12819;DHT22;6474;53.474;9.894;2022-09-13T06:42:05;17.30;74.80
12819;DHT22;6474;53.474;9.894;2022-09-13T06:44:33;17.40;74.80
12819;DHT22;6474;53.474;9.894;2022-09-13T06:47:01;17.50;74.70
12819;DHT22;6474;53.474;9.894;2022-09-13T06:49:29;17.50;74.70
12819;DHT22;6474;53.474;9.894;2022-09-13T06:51:58;17.60;74.80
12819;DHT22;6474;53.474;9.894;2022-09-13T06:54:25;17.60;74.80
12819;DHT22;6474;53.474;9.894;2022-09-13T06:56:54;17.60;74.80
12819;DHT22;6474;53.474;9.894;2022-09-13T06:59:22;17.70;74.90
12819;DHT22;6474;53.474;9.894;2022-09-13T07:01:50;17.70;74.90
12819;DHT22;6474;53.474;9.894;2022-09-13T07:04:18;17.80;75.00
12819;DHT22;6474;53.474;9.894;2022-09-13T07:06:47;17.80;75.00
12819;DHT22;6474;53.474;9.894;2022-09-13T07:09:17;17.80;75.00
12819;DHT22;6474;53.474;9.894;2022-09-13T07:11:46;17.80;75.10
12819;DHT22;6474;53.474;9.894;2022-09-13T07:14:17;17.80;75.00
12819;DHT22;6474;53.474;9.894;2022-09-13T07:16:45;17.80;75.00
12819;DHT22;6474;53.474;9.894;2022-09-13T07:19:15;17.90;75.10
12819;DHT22;6474;53.474;9.894;2022-09-13T07:21:43;17.90;75.10
12819;DHT22;6474;53.474;9.894;2022-09-13T07:24:11;18.00;75.30
12819;DHT22;6474;53.474;9.894;2022-09-13T07:26:39;18.00;75.20
12819;DHT22;6474;53.474;9.894;2022-09-13T07:29:10;18.10;75.40
12819;DHT22;6474;53.474;9.894;2022-09-13T07:31:41;18.20;75.50
12819;DHT22;6474;53.474;9.894;2022-09-13T07:34:12;18.20;75.40
12819;DHT22;6474;53.474;9.894;2022-09-13T07:36:40;18.20;75.40
12819;DHT22;6474;53.474;9.894;2022-09-13T07:39:08;18.30;75.50
12819;DHT22;6474;53.474;9.894;2022-09-13T07:41:42;18.30;75.40
12819;DHT22;6474;53.474;9.894;2022-09-13T07:44:10;18.40;75.50
12819;DHT22;6474;53.474;9.894;2022-09-13T07:46:39;18.40;75.50
12819;DHT22;6474;53.474;9.894;2022-09-13T07:49:10;18.40;75.40
12819;DHT22;6474;53.474;9.894;2022-09-13T07:51:40;18.40;75.40
12819;DHT22;6474;53.474;9.894;2022-09-13T07:54:10;18.50;75.60
12819;DHT22;6474;53.474;9.894;2022-09-13T07:56:39;18.40;75.60
12819;DHT22;6474;53.474;9.894;2022-09-13T07:59:11;18.50;75.70
12819;DHT22;6474;53.474;9.894;2022-09-13T08:01:41;18.50;75.70
12819;DHT22;6474;53.474;9.894;2022-09-13T08:04:11;18.40;75.50
12819;DHT22;6474;53.474;9.894;2022-09-13T08:06:41;18.40;75.60
12819;DHT22;6474;53.474;9.894;2022-09-13T08:09:10;18.30;75.60
12819;DHT22;6474;53.474;9.894;2022-09-13T08:11:40;18.40;75.70
12819;DHT22;6474;53.474;9.894;2022-09-13T08:14:09;18.30;75.60
12819;DHT22;6474;53.474;9.894;2022-09-13T08:16:39;18.40;75.70
12819;DHT22;6474;53.474;9.894;2022-09-13T08:19:10;18.40;75.70
12819;DHT22;6474;53.474;9.894;2022-09-13T08:21:40;18.40;75.70
12819;DHT22;6474;53.474;9.894;2022-09-13T08:24:13;18.40;75.70
12819;DHT22;6474;53.474;9.894;2022-09-13T08:26:41;18.40;75.70
12819;DHT22;6474;53.474;9.894;2022-09-13T08:29:10;18.40;75.70
12819;DHT22;6474;53.474;9.894;2022-09-13T08:31:40;18.50;75.80
12819;DHT22;6474;53.474;9.894;2022-09-13T08:34:09;18.50;75.80
12819;DHT22;6474;53.474;9.894;2022-09-13T08:36:38;18.60;75.90
12819;DHT22;6474;53.474;9.894;2022-09-13T08:39:07;18.70;76.10
12819;DHT22;6474;53.474;9.894;2022-09-13T08:41:55;18.80;76.10
12819;DHT22;6474;53.474;9.894;2022-09-13T08:44:29;18.90;76.20
12819;DHT22;6474;53.474;9.894;2022-09-13T08:47:08;19.10;76.30
12819;DHT22;6474;53.474;9.894;2022-09-13T08:49:40;19.20;76.10
12819;DHT22;6474;53.474;9.894;2022-09-13T08:52:27;19.30;76.10
12819;DHT22;6474;53.474;9.894;2022-09-13T08:54:56;19.30;75.90
12819;DHT22;6474;53.474;9.894;2022-09-13T08:57:29;19.30;75.70
12819;DHT22;6474;53.474;9.894;2022-09-13T09:00:03;19.30;75.70
12819;DHT22;6474;53.474;9.894;2022-09-13T09:02:48;19.30;75.70
12819;DHT22;6474;53.474;9.894;2022-09-13T09:05:20;19.40;75.80
12819;DHT22;6474;53.474;9.894;2022-09-13T09:07:51;19.40;75.80
12819;DHT22;6474;53.474;9.894;2022-09-13T09:10:22;19.50;75.90
12819;DHT22;6474;53.474;9.894;2022-09-13T09:12:53;19.50;75.90
12819;DHT22;6474;53.474;9.894;2022-09-13T09:15:24;19.60;76.10
12819;DHT22;6474;53.474;9.894;2022-09-13T09:17:58;19.70;76.10
12819;DHT22;6474;53.474;9.894;2022-09-13T09:20:29;19.80;76.00
12819;DHT22;6474;53.474;9.894;2022-09-13T09:23:02;19.70;75.80
12819;DHT22;6474;53.474;9.894;2022-09-13T09:25:30;19.70;75.70
12819;DHT22;6474;53.474;9.894;2022-09-13T09:28:05;19.70;75.90
12819;DHT22;6474;53.474;9.894;2022-09-13T09:30:42;19.70;76.00
12819;DHT22;6474;53.474;9.894;2022-09-13T09:33:30;19.70;75.90
12819;DHT22;6474;53.474;9.894;2022-09-13T09:36:05;19.70;76.00
12819;DHT22;6474;53.474;9.894;2022-09-13T09:38:39;19.70;76.00
12819;DHT22;6474;53.474;9.894;2022-09-13T09:41:14;19.80;76.00
12819;DHT22;6474;53.474;9.894;2022-09-13T09:43:53;19.80;75.80
12819;DHT22;6474;53.474;9.894;2022-09-13T09:46:26;19.80;75.60
12819;DHT22;6474;53.474;9.894;2022-09-13T09:49:03;19.90;75.70
12819;DHT22;6474;53.474;9.894;2022-09-13T09:51:53;20.00;75.70
12819;DHT22;6474;53.474;9.894;2022-09-13T09:54:24;20.10;75.80
12819;DHT22;6474;53.474;9.894;2022-09-13T09:56:54;20.20;75.70
12819;DHT22;6474;53.474;9.894;2022-09-13T09:59:25;20.30;75.50
12819;DHT22;6474;53.474;9.894;2022-09-13T10:01:54;20.10;75.10
12819;DHT22;6474;53.474;9.894;2022-09-13T10:04:25;20.00;75.00
12819;DHT22;6474;53.474;9.894;2022-09-13T10:07:10;19.90;75.10
12819;DHT22;6474;53.474;9.894;2022-09-13T10:09:56;19.70;75.10
12819;DHT22;6474;53.474;9.894;2022-09-13T10:12:29;19.70;75.30
12819;DHT22;6474;53.474;9.894;2022-09-13T10:15:06;19.80;75.40
12819;DHT22;6474;53.474;9.894;2022-09-13T10:17:34;19.80;75.20
12819;DHT22;6474;53.474;9.894;2022-09-13T10:20:20;19.90;75.10
12819;DHT22;6474;53.474;9.894;2022-09-13T10:23:16;20.10;75.00
12819;DHT22;6474;53.474;9.894;2022-09-13T10:25:55;20.20;74.90
12819;DHT22;6474;53.474;9.894;2022-09-13T10:28:24;20.30;74.70
12819;DHT22;6474;53.474;9.894;2022-09-13T10:30:54;20.40;74.70
12819;DHT22;6474;53.474;9.894;2022-09-13T10:33:28;20.60;74.80
12819;DHT22;6474;53.474;9.894;2022-09-13T10:35:59;20.80;74.80
12819;DHT22;6474;53.474;9.894;2022-09-13T10:38:30;20.90;74.60
12819;DHT22;6474;53.474;9.894;2022-09-13T10:41:01;20.90;74.40
12819;DHT22;6474;53.474;9.894;2022-09-13T10:43:31;20.80;74.20
12819;DHT22;6474;53.474;9.894;2022-09-13T10:46:02;20.80;74.10
12819;DHT22;6474;53.474;9.894;2022-09-13T10:48:44;20.70;74.10
12819;DHT22;6474;53.474;9.894;2022-09-13T10:51:30;20.80;74.20
12819;DHT22;6474;53.474;9.894;2022-09-13T10:54:17;20.90;74.30
12819;DHT22;6474;53.474;9.894;2022-09-13T10:56:46;21.00;74.20
12819;DHT22;6474;53.474;9.894;2022-09-13T10:59:19;21.10;74.10
12819;DHT22;6474;53.474;9.894;2022-09-13T11:02:00;21.20;74.00
12819;DHT22;6474;53.474;9.894;2022-09-13T11:04:55;21.30;73.80
12819;DHT22;6474;53.474;9.894;2022-09-13T11:07:46;21.30;73.50
12819;DHT22;6474;53.474;9.894;2022-09-13T11:10:20;21.20;73.40
12819;DHT22;6474;53.474;9.894;2022-09-13T11:12:58;21.00;73.10
12819;DHT22;6474;53.474;9.894;2022-09-13T11:15:38;20.80;73.30
12819;DHT22;6474;53.474;9.894;2022-09-13T11:18:28;20.80;73.60
12819;DHT22;6474;53.474;9.894;2022-09-13T11:21:04;20.80;73.70
12819;DHT22;6474;53.474;9.894;2022-09-13T11:24:02;20.80;73.50
12819;DHT22;6474;53.474;9.894;2022-09-13T11:26:50;20.70;73.40
12819;DHT22;6474;53.474;9.894;2022-09-13T11:29:28;20.60;73.60
12819;DHT22;6474;53.474;9.894;2022-09-13T11:32:07;20.60;73.60
12819;DHT22;6474;53.474;9.894;2022-09-13T11:34:48;20.50;73.60
12819;DHT22;6474;53.474;9.894;2022-09-13T11:37:27;20.50;73.60
12819;DHT22;6474;53.474;9.894;2022-09-13T11:40:17;20.40;73.50
12819;DHT22;6474;53.474;9.894;2022-09-13T11:42:52;20.40;73.60
12819;DHT22;6474;53.474;9.894;2022-09-13T11:45:24;20.40;73.60
12819;DHT22;6474;53.474;9.894;2022-09-13T11:50:52;20.50;73.50
12819;DHT22;6474;53.474;9.894;2022-09-13T11:53:42;20.50;73.50
12819;DHT22;6474;53.474;9.894;2022-09-13T11:56:21;20.40;73.40
12819;DHT22;6474;53.474;9.894;2022-09-13T11:58:52;20.30;73.30
12819;DHT22;6474;53.474;9.894;2022-09-13T12:01:25;20.30;73.40
12819;DHT22;6474;53.474;9.894;2022-09-13T12:03:57;20.20;73.30
12819;DHT22;6474;53.474;9.894;2022-09-13T12:06:30;20.20;73.50
12819;DHT22;6474;53.474;9.894;2022-09-13T12:09:02;20.30;73.60
12819;DHT22;6474;53.474;9.894;2022-09-13T12:11:36;20.50;73.50
12819;DHT22;6474;53.474;9.894;2022-09-13T12:14:10;20.70;73.30
12819;DHT22;6474;53.474;9.894;2022-09-13T12:16:41;20.80;72.90
12819;DHT22;6474;53.474;9.894;2022-09-13T12:19:14;21.00;73.10
12819;DHT22;6474;53.474;9.894;2022-09-13T12:21:44;21.10;73.20
12819;DHT22;6474;53.474;9.894;2022-09-13T12:24:20;21.20;73.20
12819;DHT22;6474;53.474;9.894;2022-09-13T12:26:55;21.30;72.90
12819;DHT22;6474;53.474;9.894;2022-09-13T12:29:31;21.30;72.90
12819;DHT22;6474;53.474;9.894;2022-09-13T12:32:03;21.30;72.90
12819;DHT22;6474;53.474;9.894;2022-09-13T12:34:38;21.30;73.10
12819;DHT22;6474;53.474;9.894;2022-09-13T12:37:26;21.40;73.40
12819;DHT22;6474;53.474;9.894;2022-09-13T12:40:27;21.50;73.60
12819;DHT22;6474;53.474;9.894;2022-09-13T12:43:23;21.70;73.40
12819;DHT22;6474;53.474;9.894;2022-09-13T12:46:13;22.00;73.00
12819;DHT22;6474;53.474;9.894;2022-09-13T12:49:07;22.10;72.80
12819;DHT22;6474;53.474;9.894;2022-09-13T12:58:16;22.20;72.70
12819;DHT22;6474;53.474;9.894;2022-09-13T13:01:07;22.20;72.90
12819;DHT22;6474;53.474;9.894;2022-09-13T13:03:43;22.30;72.90
12819;DHT22;6474;53.474;9.894;2022-09-13T13:06:24;22.30;72.80
12819;DHT22;6474;53.474;9.894;2022-09-13T13:08:55;22.40;72.60
12819;DHT22;6474;53.474;9.894;2022-09-13T13:11:25;22.40;72.50
12819;DHT22;6474;53.474;9.894;2022-09-13T13:13:56;22.40;72.40
12819;DHT22;6474;53.474;9.894;2022-09-13T13:16:28;22.40;72.40
12819;DHT22;6474;53.474;9.894;2022-09-13T13:19:00;22.30;72.50
12819;DHT22;6474;53.474;9.894;2022-09-13T13:21:32;22.20;72.40
12819;DHT22;6474;53.474;9.894;2022-09-13T13:24:39;22.10;72.50
12819;DHT22;6474;53.474;9.894;2022-09-13T13:27:36;22.20;72.80
12819;DHT22;6474;53.474;9.894;2022-09-13T13:30:49;22.20;72.60
12819;DHT22;6474;53.474;9.894;2022-09-13T13:33:20;22.20;72.50
12819;DHT22;6474;53.474;9.894;2022-09-13T13:35:49;22.20;72.40
12819;DHT22;6474;53.474;9.894;2022-09-13T13:38:35;22.30;72.30
12819;DHT22;6474;53.474;9.894;2022-09-13T13:41:06;22.20;72.20
12819;DHT22;6474;53.474;9.894;2022-09-13T13:43:38;22.00;72.00
12819;DHT22;6474;53.474;9.894;2022-09-13T13:46:29;21.90;72.20
12819;DHT22;6474;53.474;9.894;2022-09-13T13:55:00;21.60;72.60
12819;DHT22;6474;53.474;9.894;2022-09-13T13:57:32;21.50;72.50
12819;DHT22;6474;53.474;9.894;2022-09-13T14:00:06;21.50;72.70
12819;DHT22;6474;53.474;9.894;2022-09-13T14:02:43;21.40;72.70
12819;DHT22;6474;53.474;9.894;2022-09-13T14:05:18;21.30;72.80
12819;DHT22;6474;53.474;9.894;2022-09-13T14:10:58;21.60;73.00
12819;DHT22;6474;53.474;9.894;2022-09-13T14:13:40;21.70;72.40
12819;DHT22;6474;53.474;9.894;2022-09-13T14:16:20;21.80;72.40
12819;DHT22;6474;53.474;9.894;2022-09-13T14:19:11;21.80;72.30
12819;DHT22;6474;53.474;9.894;2022-09-13T14:21:44;21.90;72.10
12819;DHT22;6474;53.474;9.894;2022-09-13T14:24:17;21.90;71.90
12819;DHT22;6474;53.474;9.894;2022-09-13T14:26:46;21.80;71.80
12819;DHT22;6474;53.474;9.894;2022-09-13T14:29:16;21.60;71.70
12819;DHT22;6474;53.474;9.894;2022-09-13T14:31:46;21.60;72.00
12819;DHT22;6474;53.474;9.894;2022-09-13T14:34:22;21.60;72.20
12819;DHT22;6474;53.474;9.894;2022-09-13T14:36:51;21.60;72.20
12819;DHT22;6474;53.474;9.894;2022-09-13T14:39:20;21.60;72.10
12819;DHT22;6474;53.474;9.894;2022-09-13T14:41:57;21.60;72.00
12819;DHT22;6474;53.474;9.894;2022-09-13T14:44:27;21.50;71.90
12819;DHT22;6474;53.474;9.894;2022-09-13T14:47:02;21.40;72.10
12819;DHT22;6474;53.474;9.894;2022-09-13T14:49:35;21.30;72.20
12819;DHT22;6474;53.474;9.894;2022-09-13T14:52:08;21.30;72.40
12819;DHT22;6474;53.474;9.894;2022-09-13T14:54:40;21.20;72.30
12819;DHT22;6474;53.474;9.894;2022-09-13T14:57:19;21.10;72.20
12819;DHT22;6474;53.474;9.894;2022-09-13T14:59:52;21.10;72.30
12819;DHT22;6474;53.474;9.894;2022-09-13T15:02:24;21.00;73.20
12819;DHT22;6474;53.474;9.894;2022-09-13T15:04:54;21.00;72.60
12819;DHT22;6474;53.474;9.894;2022-09-13T15:07:28;21.10;72.70
12819;DHT22;6474;53.474;9.894;2022-09-13T15:10:05;21.10;72.50
12819;DHT22;6474;53.474;9.894;2022-09-13T15:12:34;21.00;72.20
12819;DHT22;6474;53.474;9.894;2022-09-13T15:15:25;20.90;72.10
12819;DHT22;6474;53.474;9.894;2022-09-13T15:17:55;20.80;72.10
12819;DHT22;6474;53.474;9.894;2022-09-13T15:20:27;20.70;72.20
12819;DHT22;6474;53.474;9.894;2022-09-13T15:22:56;20.60;72.30
12819;DHT22;6474;53.474;9.894;2022-09-13T15:25:25;20.60;72.60
12819;DHT22;6474;53.474;9.894;2022-09-13T15:27:54;20.60;72.70
12819;DHT22;6474;53.474;9.894;2022-09-13T15:30:25;20.50;72.60
12819;DHT22;6474;53.474;9.894;2022-09-13T15:33:05;20.50;72.40
12819;DHT22;6474;53.474;9.894;2022-09-13T15:35:37;20.50;72.50
12819;DHT22;6474;53.474;9.894;2022-09-13T15:38:17;20.40;72.30
12819;DHT22;6474;53.474;9.894;2022-09-13T15:40:55;20.30;72.20
12819;DHT22;6474;53.474;9.894;2022-09-13T15:43:24;20.20;72.20
12819;DHT22;6474;53.474;9.894;2022-09-13T15:45:52;20.20;72.20
12819;DHT22;6474;53.474;9.894;2022-09-13T15:48:25;20.00;72.00
12819;DHT22;6474;53.474;9.894;2022-09-13T15:51:06;20.00;72.00
12819;DHT22;6474;53.474;9.894;2022-09-13T15:53:35;19.90;72.20
12819;DHT22;6474;53.474;9.894;2022-09-13T15:56:05;19.80;72.10
12819;DHT22;6474;53.474;9.894;2022-09-13T15:58:34;19.80;72.20
12819;DHT22;6474;53.474;9.894;2022-09-13T16:01:03;19.70;72.30
12819;DHT22;6474;53.474;9.894;2022-09-13T16:03:31;19.70;72.30
12819;DHT22;6474;53.474;9.894;2022-09-13T16:05:59;19.60;72.30
12819;DHT22;6474;53.474;9.894;2022-09-13T16:08:28;19.60;72.30
12819;DHT22;6474;53.474;9.894;2022-09-13T16:10:56;19.60;72.40
12819;DHT22;6474;53.474;9.894;2022-09-13T16:13:24;19.50;72.30
12819;DHT22;6474;53.474;9.894;2022-09-13T16:15:52;19.50;72.40
12819;DHT22;6474;53.474;9.894;2022-09-13T16:18:23;19.50;72.30
12819;DHT22;6474;53.474;9.894;2022-09-13T16:20:51;19.50;72.20
12819;DHT22;6474;53.474;9.894;2022-09-13T16:23:19;19.50;72.20
12819;DHT22;6474;53.474;9.894;2022-09-13T16:25:49;19.50;72.10
12819;DHT22;6474;53.474;9.894;2022-09-13T16:28:18;19.50;72.10
12819;DHT22;6474;53.474;9.894;2022-09-13T16:30:47;19.40;72.00
12819;DHT22;6474;53.474;9.894;2022-09-13T16:33:14;19.40;72.00
12819;DHT22;6474;53.474;9.894;2022-09-13T16:35:42;19.30;71.90
12819;DHT22;6474;53.474;9.894;2022-09-13T16:38:10;19.30;72.00
12819;DHT22;6474;53.474;9.894;2022-09-13T16:40:38;19.30;72.10
12819;DHT22;6474;53.474;9.894;2022-09-13T16:43:08;19.30;72.00
12819;DHT22;6474;53.474;9.894;2022-09-13T16:45:37;19.30;72.00
12819;DHT22;6474;53.474;9.894;2022-09-13T16:48:05;19.20;71.90